Time;durP1;ratioP1;P1;durP2;ratioP2;P2;SDS_P1;SDS_P2;PMS_P1;PMS_P2;Temp;Humidity;BMP_temperature;BMP_pressure;BME280_temperature;BME280_humidity;BME280_pressure;Samples;Min_cycle;Max_cycle;Signal;HPM_P1;HPM_P2
2024/01/13 00:01:10;;;;;;;87.53;42.43;;;-1.90;22.50;;;;;;5010649;28;20485;-70
2024/01/13 00:03:38;;;;;;;100.60;40.83;;;-1.90;22.60;;;;;;5027129;28;20463;-68
2024/01/13 00:06:05;;;;;;;101.43;44.60;;;-1.90;22.70;;;;;;5025309;28;20539;-70
2024/01/13 00:08:32;;;;;;;97.73;45.90;;;-1.90;22.60;;;;;;5027903;28;20463;-68
2024/01/13 00:10:59;;;;;;;90.77;44.57;;;-2.00;22.90;;;;;;5027223;28;20981;-68
2024/01/13 00:15:54;;;;;;;96.83;44.47;;;-2.00;22.90;;;;;;5002471;28;20486;-65
2024/01/13 00:18:21;;;;;;;85.37;41.50;;;-2.00;22.90;;;;;;5028829;28;20489;-66
2024/01/13 00:20:49;;;;;;;93.47;42.00;;;-2.00;22.90;;;;;;5025450;28;20469;-66
2024/01/13 00:23:16;;;;;;;98.30;41.43;;;-2.00;22.90;;;;;;5022305;28;20463;-66
2024/01/13 00:25:43;;;;;;;91.93;41.23;;;-2.00;22.90;;;;;;5021107;28;20589;-66
2024/01/13 00:28:10;;;;;;;103.33;43.13;;;-2.00;22.90;;;;;;5028237;28;20832;-66
2024/01/13 00:30:37;;;;;;;85.83;38.47;;;-2.00;22.70;;;;;;5023941;28;20475;-66
2024/01/13 00:33:04;;;;;;;94.53;40.90;;;-2.00;22.60;;;;;;5019701;28;20493;-66
2024/01/13 00:35:30;;;;;;;85.93;39.10;;;-2.00;22.50;;;;;;5022462;28;20477;-66
2024/01/13 00:37:59;;;;;;;88.87;42.20;;;-2.00;22.20;;;;;;5023667;28;20517;-66
2024/01/13 00:40:25;;;;;;;101.40;45.70;;;-2.00;22.20;;;;;;5022369;28;20458;-66
2024/01/13 00:42:52;;;;;;;90.90;43.33;;;-2.10;22.20;;;;;;5024211;28;20459;-66
2024/01/13 00:45:19;;;;;;;99.57;43.60;;;-2.00;22.30;;;;;;5027508;28;20566;-66
2024/01/13 00:47:46;;;;;;;98.20;41.63;;;-2.00;22.40;;;;;;5026897;28;20896;-66
2024/01/13 00:50:13;;;;;;;108.83;44.67;;;-2.00;22.40;;;;;;5026219;28;20460;-65
2024/01/13 00:52:40;;;;;;;94.17;41.70;;;-2.00;22.50;;;;;;5023795;28;20479;-66
2024/01/13 00:55:09;;;;;;;91.87;36.87;;;-2.00;22.60;;;;;;5025643;28;20467;-65
2024/01/13 00:57:36;;;;;;;85.10;40.27;;;-2.10;22.50;;;;;;5025851;28;20558;-67
2024/01/13 01:00:03;;;;;;;95.17;42.33;;;-2.10;22.40;;;;;;5025204;28;20558;-68
2024/01/13 01:02:30;;;;;;;97.13;42.50;;;-2.10;22.60;;;;;;5043157;28;21100;-68
2024/01/13 01:04:56;;;;;;;105.60;42.23;;;-2.10;22.70;;;;;;5044783;28;20473;-68
2024/01/13 01:07:23;;;;;;;103.97;44.30;;;-2.10;22.70;;;;;;5045237;28;20510;-68
2024/01/13 01:09:50;;;;;;;104.67;43.13;;;-2.10;22.80;;;;;;5040806;28;20542;-67
2024/01/13 01:12:18;;;;;;;99.97;44.70;;;-2.10;22.70;;;;;;5043815;28;20490;-68
2024/01/13 01:14:45;;;;;;;102.83;42.13;;;-2.10;23.00;;;;;;5047134;28;20531;-68
2024/01/13 01:17:13;;;;;;;96.90;42.23;;;-2.10;23.40;;;;;;5043886;28;20513;-68
2024/01/13 01:19:40;;;;;;;96.67;43.40;;;-2.10;22.80;;;;;;5046509;28;20494;-68
2024/01/13 01:22:06;;;;;;;99.27;42.60;;;-2.10;22.90;;;;;;5044427;28;20498;-67
2024/01/13 01:24:33;;;;;;;97.03;41.47;;;-2.10;22.90;;;;;;5042329;28;20466;-68
2024/01/13 01:27:00;;;;;;;87.27;41.40;;;-2.10;22.90;;;;;;5046717;28;20530;-67
2024/01/13 01:29:28;;;;;;;90.13;40.63;;;-2.10;23.00;;;;;;5045022;28;20468;-66
2024/01/13 01:31:55;;;;;;;99.67;42.57;;;-2.00;22.90;;;;;;5044820;28;20509;-66
2024/01/13 01:34:22;;;;;;;104.17;41.03;;;-2.10;22.90;;;;;;5040175;28;21025;-66
2024/01/13 01:36:49;;;;;;;88.93;42.77;;;-2.10;22.80;;;;;;5045127;28;20553;-67
2024/01/13 01:39:16;;;;;;;85.30;39.33;;;-2.00;22.40;;;;;;5045382;28;20466;-67
2024/01/13 01:41:42;;;;;;;87.23;39.23;;;-2.10;22.50;;;;;;5045759;28;20474;-67
2024/01/13 01:44:08;;;;;;;101.87;42.50;;;-2.10;22.70;;;;;;5044795;28;20484;-67
2024/01/13 01:46:37;;;;;;;94.70;43.23;;;-2.00;22.60;;;;;;5046347;28;20925;-67
2024/01/13 01:49:04;;;;;;;98.03;42.47;;;-2.00;22.60;;;;;;5042920;28;20303;-68
2024/01/13 01:51:31;;;;;;;91.10;41.67;;;-2.00;22.50;;;;;;5044382;28;20470;-67
2024/01/13 01:53:59;;;;;;;97.53;41.23;;;-2.00;22.60;;;;;;5046878;28;20486;-67
2024/01/13 01:56:29;;;;;;;100.33;41.70;;;-2.00;22.60;;;;;;5042856;28;20538;-67
2024/01/13 01:58:56;;;;;;;83.03;39.70;;;-2.00;22.50;;;;;;5044190;28;20473;-67
2024/01/13 02:01:24;;;;;;;88.40;39.33;;;-2.00;22.60;;;;;;5042942;28;20565;-67
2024/01/13 02:03:53;;;;;;;86.60;38.87;;;-2.00;22.50;;;;;;5040843;28;20459;-67
2024/01/13 02:06:20;;;;;;;85.97;38.17;;;-2.00;22.50;;;;;;5041925;28;20486;-67
2024/01/13 02:08:48;;;;;;;78.30;36.43;;;-2.00;22.50;;;;;;5045325;28;20462;-67
2024/01/13 02:11:15;;;;;;;81.80;37.00;;;-2.00;22.50;;;;;;5047790;28;20466;-67
2024/01/13 02:13:43;;;;;;;75.30;38.00;;;-2.10;22.60;;;;;;5047971;28;20509;-68
2024/01/13 02:16:11;;;;;;;86.53;36.63;;;-2.00;22.60;;;;;;5046221;28;21034;-69
2024/01/13 02:18:38;;;;;;;83.90;38.07;;;-2.00;22.60;;;;;;5042881;28;20497;-67
2024/01/13 02:21:07;;;;;;;92.10;40.13;;;-2.00;22.50;;;;;;5047173;28;20556;-67
2024/01/13 02:23:35;;;;;;;90.93;37.90;;;-2.10;22.40;;;;;;5048256;28;21184;-67
2024/01/13 02:26:02;;;;;;;87.67;40.30;;;-2.00;22.40;;;;;;5045157;28;20834;-68
2024/01/13 02:28:29;;;;;;;84.20;38.40;;;-2.00;22.20;;;;;;5048352;28;20473;-67
2024/01/13 02:30:56;;;;;;;82.80;38.27;;;-2.00;22.20;;;;;;5044162;28;20573;-67
2024/01/13 02:33:23;;;;;;;80.30;37.97;;;-1.90;22.20;;;;;;5049932;28;20564;-67
2024/01/13 02:35:50;;;;;;;84.53;36.33;;;-2.00;22.20;;;;;;5058265;28;20500;-67
2024/01/13 02:38:16;;;;;;;82.00;36.67;;;-2.00;22.10;;;;;;5046879;28;20481;-67
2024/01/13 02:40:45;;;;;;;81.67;37.23;;;-2.00;21.80;;;;;;5049201;28;21031;-67
2024/01/13 02:43:12;;;;;;;82.93;38.30;;;-2.00;21.70;;;;;;5046415;28;20810;-68
2024/01/13 02:45:38;;;;;;;91.70;39.00;;;-2.10;21.80;;;;;;5048199;28;20466;-68
2024/01/13 02:48:10;;;;;;;86.43;38.13;;;-2.10;21.90;;;;;;5049867;28;20477;-68
2024/01/13 02:50:37;;;;;;;82.93;38.73;;;-2.10;21.80;;;;;;5043997;28;20821;-67
2024/01/13 02:53:04;;;;;;;85.10;36.97;;;-2.10;21.80;;;;;;5050534;28;21016;-68
2024/01/13 02:55:30;;;;;;;84.93;37.83;;;-2.20;22.00;;;;;;5056260;28;20447;-68
2024/01/13 02:57:59;;;;;;;81.77;37.50;;;-2.20;21.90;;;;;;5071672;28;20466;-67
2024/01/13 03:00:25;;;;;;;83.50;37.00;;;-2.20;22.00;;;;;;5053583;28;20503;-67
2024/01/13 03:02:52;;;;;;;93.70;36.40;;;-2.20;22.10;;;;;;5048017;28;20977;-67
2024/01/13 03:05:19;;;;;;;82.70;37.93;;;-2.30;22.10;;;;;;5045690;28;20468;-67
2024/01/13 03:07:46;;;;;;;76.20;37.83;;;-2.30;22.30;;;;;;5047577;28;20596;-67
2024/01/13 03:10:15;;;;;;;91.43;40.00;;;-2.30;22.10;;;;;;5043018;28;20458;-67
2024/01/13 03:12:42;;;;;;;85.83;37.53;;;-2.30;22.30;;;;;;5042091;28;20509;-67
2024/01/13 03:15:11;;;;;;;87.87;38.03;;;-2.40;22.30;;;;;;5045326;28;20557;-67
2024/01/13 03:17:38;;;;;;;81.40;35.73;;;-2.40;22.50;;;;;;5044809;28;20485;-67
2024/01/13 03:20:06;;;;;;;92.03;39.33;;;-2.40;22.70;;;;;;5041419;28;20454;-67
2024/01/13 03:22:33;;;;;;;87.50;39.27;;;-2.40;22.70;;;;;;5044379;28;20463;-67
2024/01/13 03:25:00;;;;;;;81.57;36.07;;;-2.40;22.80;;;;;;5042627;28;20546;-67
2024/01/13 03:27:27;;;;;;;75.77;36.50;;;-2.40;22.80;;;;;;5046457;28;21207;-68
2024/01/13 03:29:53;;;;;;;91.47;40.40;;;-2.40;22.80;;;;;;5045914;28;20481;-67
2024/01/13 03:32:22;;;;;;;84.00;37.80;;;-2.40;22.90;;;;;;5045854;28;20476;-67
2024/01/13 03:34:48;;;;;;;84.63;39.63;;;-2.40;22.80;;;;;;5047093;28;20955;-68
2024/01/13 03:37:15;;;;;;;91.47;41.73;;;-2.40;22.80;;;;;;5045961;28;20493;-68
2024/01/13 03:39:42;;;;;;;88.37;36.10;;;-2.40;22.80;;;;;;5042669;28;20474;-68
2024/01/13 03:42:09;;;;;;;85.23;37.00;;;-2.40;22.80;;;;;;5043979;28;20826;-68
2024/01/13 03:44:36;;;;;;;77.53;36.03;;;-2.40;22.80;;;;;;5046957;28;20701;-68
2024/01/13 03:47:03;;;;;;;77.93;38.77;;;-2.40;22.80;;;;;;5045443;28;20657;-68
2024/01/13 03:49:31;;;;;;;76.77;37.20;;;-2.40;22.90;;;;;;5045018;28;20550;-68
2024/01/13 03:51:58;;;;;;;80.63;34.47;;;-2.40;22.80;;;;;;5048327;28;20458;-68
2024/01/13 03:54:24;;;;;;;75.33;36.67;;;-2.40;22.80;;;;;;5040183;28;20982;-68
2024/01/13 03:56:52;;;;;;;76.30;33.80;;;-2.40;22.70;;;;;;5025197;28;20493;-68
2024/01/13 03:59:20;;;;;;;71.47;33.80;;;-2.40;22.70;;;;;;5041283;28;20469;-67
2024/01/13 04:01:47;;;;;;;76.20;33.80;;;-2.40;22.50;;;;;;5040171;28;20481;-67
2024/01/13 04:04:14;;;;;;;78.83;34.30;;;-2.40;22.60;;;;;;5038617;28;20465;-68
2024/01/13 04:06:42;;;;;;;80.00;34.60;;;-2.40;22.50;;;;;;5042657;28;20490;-68
2024/01/13 04:09:09;;;;;;;74.07;37.27;;;-2.50;22.70;;;;;;5045152;28;20818;-67
2024/01/13 04:11:36;;;;;;;81.03;34.27;;;-2.40;22.80;;;;;;5041679;28;20554;-67
2024/01/13 04:14:03;;;;;;;83.77;38.20;;;-2.40;22.80;;;;;;5047626;28;20482;-67
2024/01/13 04:16:30;;;;;;;87.50;36.60;;;-2.50;22.90;;;;;;5041425;28;20500;-67
2024/01/13 04:18:56;;;;;;;83.20;35.87;;;-2.40;23.00;;;;;;5046770;28;20474;-68
2024/01/13 04:21:23;;;;;;;74.37;35.73;;;-2.50;23.00;;;;;;5041763;28;20500;-67
2024/01/13 04:23:52;;;;;;;85.33;36.27;;;-2.40;22.90;;;;;;5044287;28;20894;-67
2024/01/13 04:26:20;;;;;;;79.20;34.50;;;-2.40;22.90;;;;;;5050107;28;20482;-67
2024/01/13 04:28:47;;;;;;;76.40;35.27;;;-2.40;22.90;;;;;;5039020;28;20557;-67
2024/01/13 04:31:14;;;;;;;83.73;37.97;;;-2.40;22.90;;;;;;5044193;28;20573;-67
2024/01/13 04:33:41;;;;;;;83.80;37.13;;;-2.40;22.90;;;;;;5038061;28;20482;-67
2024/01/13 04:36:08;;;;;;;88.67;37.73;;;-2.30;22.90;;;;;;5046780;28;20476;-67
2024/01/13 04:38:35;;;;;;;85.83;37.77;;;-2.30;22.80;;;;;;5044400;28;20469;-67
2024/01/13 04:41:03;;;;;;;78.67;35.67;;;-2.20;22.80;;;;;;5042233;28;20473;-67
2024/01/13 04:43:30;;;;;;;65.30;33.97;;;-2.20;22.80;;;;;;5042295;28;20557;-67
2024/01/13 04:45:57;;;;;;;67.63;33.23;;;-2.20;22.50;;;;;;5042287;28;21122;-67
2024/01/13 04:48:24;;;;;;;72.50;32.90;;;-2.20;22.40;;;;;;5040475;28;20466;-67
2024/01/13 04:50:52;;;;;;;63.07;31.30;;;-2.20;22.30;;;;;;5047085;28;20458;-67
2024/01/13 04:53:18;;;;;;;69.97;34.07;;;-2.20;22.30;;;;;;5043246;28;20489;-68
2024/01/13 04:55:45;;;;;;;77.33;35.70;;;-2.20;22.20;;;;;;5043428;28;20467;-67
2024/01/13 04:58:13;;;;;;;75.90;36.27;;;-2.20;22.20;;;;;;5048209;28;20864;-68
2024/01/13 05:00:40;;;;;;;77.03;34.57;;;-2.30;22.30;;;;;;5042436;28;20473;-68
2024/01/13 05:03:08;;;;;;;84.53;35.03;;;-2.30;22.40;;;;;;5043816;28;20472;-68
2024/01/13 05:05:35;;;;;;;73.80;33.97;;;-2.30;22.30;;;;;;5045199;28;20468;-67
2024/01/13 05:08:02;;;;;;;79.23;37.13;;;-2.30;23.10;;;;;;5043613;28;20481;-68
2024/01/13 05:10:29;;;;;;;73.50;34.90;;;-2.30;22.50;;;;;;5043943;28;20541;-67
2024/01/13 05:12:56;;;;;;;85.73;39.87;;;-2.30;23.00;;;;;;5039242;28;20493;-68
2024/01/13 05:15:24;;;;;;;93.97;35.63;;;-2.30;22.40;;;;;;5039098;28;20997;-68
2024/01/13 05:17:51;;;;;;;79.13;32.80;;;-2.30;22.50;;;;;;5046190;28;20574;-67
2024/01/13 05:20:18;;;;;;;79.57;36.23;;;-2.30;22.40;;;;;;5042248;28;20556;-68
2024/01/13 05:22:45;;;;;;;64.17;32.90;;;-2.30;23.00;;;;;;5043100;28;20496;-68
2024/01/13 05:25:12;;;;;;;62.20;31.33;;;-2.30;22.40;;;;;;5044106;28;20534;-68
2024/01/13 05:27:39;;;;;;;67.93;31.17;;;-2.30;22.10;;;;;;5046964;28;20503;-67
2024/01/13 05:30:09;;;;;;;72.40;31.60;;;-2.30;22.10;;;;;;5046522;28;20487;-67
2024/01/13 05:32:39;;;;;;;63.80;30.70;;;-2.40;22.20;;;;;;5043660;28;20466;-67
2024/01/13 05:35:07;;;;;;;68.37;35.90;;;-2.40;22.20;;;;;;5042068;28;20474;-68
2024/01/13 05:37:34;;;;;;;64.83;29.00;;;-2.40;22.20;;;;;;5042840;28;20559;-68
2024/01/13 05:40:01;;;;;;;74.40;32.43;;;-2.40;22.60;;;;;;5044519;28;20962;-68
2024/01/13 05:42:28;;;;;;;72.93;32.17;;;-2.40;22.40;;;;;;5042801;28;21048;-67
2024/01/13 05:44:55;;;;;;;67.97;29.90;;;-2.40;22.40;;;;;;5038034;28;20463;-67
2024/01/13 05:47:22;;;;;;;73.33;32.13;;;-2.50;22.50;;;;;;5046474;28;20620;-68
2024/01/13 05:49:51;;;;;;;69.13;33.70;;;-2.40;22.50;;;;;;5049207;28;20468;-68
2024/01/13 05:52:18;;;;;;;66.60;29.47;;;-2.50;22.50;;;;;;5043328;28;20462;-68
2024/01/13 05:54:45;;;;;;;61.37;28.70;;;-2.50;22.40;;;;;;5047080;28;20489;-68
2024/01/13 05:57:12;;;;;;;71.17;33.50;;;-2.50;22.40;;;;;;5045359;28;20568;-67
2024/01/13 05:59:39;;;;;;;64.37;31.20;;;-2.50;22.30;;;;;;5047089;28;20461;-68
2024/01/13 06:02:06;;;;;;;90.07;30.40;;;-2.60;22.20;;;;;;5048215;28;20477;-68
2024/01/13 06:04:33;;;;;;;70.30;29.90;;;-2.60;22.50;;;;;;5063784;28;20472;-68
2024/01/13 06:07:04;;;;;;;57.60;28.90;;;-2.60;22.50;;;;;;5076122;28;20486;-68
2024/01/13 06:09:31;;;;;;;63.03;29.00;;;-2.60;22.60;;;;;;5059505;28;20520;-68
2024/01/13 06:11:57;;;;;;;58.27;29.17;;;-2.60;22.60;;;;;;5046985;28;20468;-67
2024/01/13 06:14:25;;;;;;;60.73;29.67;;;-2.60;22.50;;;;;;5049986;28;20484;-68
2024/01/13 06:16:52;;;;;;;64.27;32.07;;;-2.70;22.80;;;;;;5046601;28;21022;-67
2024/01/13 06:19:19;;;;;;;58.00;30.00;;;-2.70;22.90;;;;;;5047230;28;20501;-67
2024/01/13 06:21:46;;;;;;;78.10;32.10;;;-2.70;23.00;;;;;;5047618;28;20466;-68
2024/01/13 06:24:15;;;;;;;75.23;31.73;;;-2.70;23.10;;;;;;5048254;28;20458;-67
2024/01/13 06:26:42;;;;;;;69.30;32.37;;;-2.70;23.00;;;;;;5045572;28;20484;-68
2024/01/13 06:29:10;;;;;;;72.00;32.10;;;-2.70;23.00;;;;;;5050144;28;20998;-67
2024/01/13 06:31:37;;;;;;;71.07;30.17;;;-2.70;23.10;;;;;;5045124;28;20921;-68
2024/01/13 06:34:04;;;;;;;56.63;27.60;;;-2.70;23.00;;;;;;5047666;28;20486;-67
2024/01/13 06:36:31;;;;;;;72.10;29.47;;;-2.70;23.00;;;;;;5057672;22;20870;-69
2024/01/13 06:38:58;;;;;;;64.87;28.17;;;-2.70;22.90;;;;;;5026030;28;20906;-68
2024/01/13 06:41:26;;;;;;;70.47;30.43;;;-2.70;22.60;;;;;;5022776;28;20472;-69
2024/01/13 06:43:53;;;;;;;63.20;28.40;;;-2.70;22.60;;;;;;5023229;28;20953;-70
2024/01/13 06:46:20;;;;;;;81.83;27.77;;;-2.70;22.80;;;;;;5029131;28;20850;-70
2024/01/13 06:48:47;;;;;;;64.70;28.30;;;-2.70;22.70;;;;;;5026503;28;20528;-70
2024/01/13 06:51:15;;;;;;;75.00;31.20;;;-2.80;22.70;;;;;;5028118;28;21050;-70
2024/01/13 06:53:42;;;;;;;67.17;28.70;;;-2.80;22.80;;;;;;5027088;28;20551;-70
2024/01/13 06:56:09;;;;;;;59.90;27.47;;;-2.80;22.90;;;;;;5028089;28;20467;-70
2024/01/13 06:58:38;;;;;;;67.33;28.67;;;-2.80;23.00;;;;;;5027655;28;20558;-70
2024/01/13 07:01:05;;;;;;;60.33;29.47;;;-2.90;23.20;;;;;;5017650;28;20486;-70
2024/01/13 07:03:32;;;;;;;68.90;29.87;;;-2.90;23.30;;;;;;5007269;28;20483;-70
2024/01/13 07:05:59;;;;;;;63.40;31.20;;;-2.90;23.40;;;;;;5010825;28;20972;-70
2024/01/13 07:08:25;;;;;;;66.97;31.17;;;-2.90;23.60;;;;;;5010393;28;20476;-70
2024/01/13 07:10:54;;;;;;;60.87;28.33;;;-2.90;23.60;;;;;;5010447;28;20475;-70
2024/01/13 07:13:21;;;;;;;69.73;27.33;;;-2.90;23.50;;;;;;5007275;28;20467;-69
2024/01/13 07:15:49;;;;;;;55.50;24.13;;;-2.90;23.50;;;;;;5003155;28;20579;-70
2024/01/13 07:18:16;;;;;;;62.23;29.43;;;-2.90;23.10;;;;;;5007591;28;20487;-70
2024/01/13 07:20:43;;;;;;;66.77;28.30;;;-2.90;23.10;;;;;;5008494;28;20550;-70
2024/01/13 07:23:10;;;;;;;72.47;28.80;;;-2.90;23.20;;;;;;5004214;28;21148;-69
2024/01/13 07:25:36;;;;;;;58.10;29.03;;;-2.90;23.10;;;;;;5007820;28;20452;-69
2024/01/13 07:28:04;;;;;;;53.53;27.43;;;-2.90;23.30;;;;;;5006482;28;20483;-70
2024/01/13 07:30:31;;;;;;;61.23;27.50;;;-3.00;23.50;;;;;;5005970;28;20555;-70
2024/01/13 07:32:59;;;;;;;56.83;27.87;;;-2.90;23.70;;;;;;5008066;28;20476;-70
2024/01/13 07:35:26;;;;;;;61.37;29.53;;;-3.00;23.60;;;;;;5006497;28;21110;-69
2024/01/13 07:37:53;;;;;;;62.57;30.47;;;-3.00;23.70;;;;;;5009224;28;20494;-70
2024/01/13 07:40:20;;;;;;;61.03;27.83;;;-3.00;23.70;;;;;;5007498;28;20814;-69
2024/01/13 07:42:46;;;;;;;60.63;31.00;;;-2.90;23.80;;;;;;5008431;28;20928;-69
2024/01/13 07:45:13;;;;;;;60.47;25.50;;;-2.90;23.70;;;;;;5007060;28;20475;-70
2024/01/13 07:47:41;;;;;;;48.90;26.10;;;-2.90;23.60;;;;;;5012074;28;20981;-70
2024/01/13 07:50:09;;;;;;;44.10;22.50;;;-2.90;23.00;;;;;;5005002;28;20526;-70
2024/01/13 07:52:36;;;;;;;59.67;26.50;;;-2.90;22.90;;;;;;5009440;28;20468;-70
2024/01/13 07:55:04;;;;;;;56.20;25.33;;;-2.90;23.00;;;;;;5009165;28;21272;-69
2024/01/13 07:57:31;;;;;;;56.47;27.93;;;-2.90;22.90;;;;;;5008063;28;20491;-70
2024/01/13 07:59:58;;;;;;;59.50;28.47;;;-2.90;23.30;;;;;;5007297;28;20534;-70
2024/01/13 08:02:25;;;;;;;59.73;26.50;;;-2.90;23.00;;;;;;5027633;28;20485;-70
2024/01/13 08:04:52;;;;;;;57.70;27.37;;;-2.90;23.00;;;;;;5029140;28;20487;-70
2024/01/13 08:07:23;;;;;;;57.87;29.67;;;-2.90;23.00;;;;;;5031706;28;20474;-70
2024/01/13 08:09:50;;;;;;;55.57;27.40;;;-2.80;23.00;;;;;;5027693;28;20509;-70
2024/01/13 08:12:17;;;;;;;64.67;27.60;;;-2.80;22.90;;;;;;5021628;28;20482;-70
2024/01/13 08:14:43;;;;;;;67.67;31.57;;;-2.80;22.80;;;;;;5024878;28;20486;-70
2024/01/13 08:17:13;;;;;;;71.53;30.87;;;-2.80;22.60;;;;;;5025057;28;21081;-70
2024/01/13 08:19:40;;;;;;;54.50;25.63;;;-2.80;22.50;;;;;;5024802;28;20469;-70
2024/01/13 08:22:07;;;;;;;52.43;24.73;;;-2.70;22.60;;;;;;5032414;28;20866;-70
2024/01/13 08:24:35;;;;;;;49.33;25.57;;;-2.70;22.50;;;;;;5022848;28;20793;-70
2024/01/13 08:27:02;;;;;;;57.20;28.00;;;-2.70;22.50;;;;;;5016980;28;20577;-70
2024/01/13 08:29:29;;;;;;;55.87;29.67;;;-2.70;22.40;;;;;;5030184;28;20470;-70
2024/01/13 08:31:56;;;;;;;51.47;26.73;;;-2.70;22.50;;;;;;5025048;28;20557;-70
2024/01/13 08:34:23;;;;;;;54.73;27.47;;;-2.70;22.30;;;;;;5022280;28;20490;-70
2024/01/13 08:36:49;;;;;;;60.47;28.97;;;-2.60;22.20;;;;;;5024531;28;20489;-70
2024/01/13 08:39:16;;;;;;;54.60;27.73;;;-2.60;22.10;;;;;;5027573;28;20459;-70
2024/01/13 08:41:45;;;;;;;54.87;28.07;;;-2.60;22.00;;;;;;5025201;28;20938;-70
2024/01/13 08:44:11;;;;;;;53.63;26.70;;;-2.60;22.10;;;;;;5024816;28;20459;-70
2024/01/13 08:46:38;;;;;;;71.10;30.77;;;-2.60;22.10;;;;;;5023841;28;20478;-69
2024/01/13 08:49:05;;;;;;;47.03;26.80;;;-2.60;21.90;;;;;;5024129;28;20557;-70
2024/01/13 08:51:32;;;;;;;61.20;29.87;;;-2.50;22.10;;;;;;5021255;28;20478;-70
2024/01/13 08:53:59;;;;;;;57.57;26.30;;;-2.50;22.00;;;;;;5025287;28;20461;-70
2024/01/13 08:56:26;;;;;;;60.90;27.37;;;-2.50;21.90;;;;;;5026904;28;20533;-70
2024/01/13 08:58:54;;;;;;;56.00;26.20;;;-2.50;21.60;;;;;;5024019;28;20472;-70
2024/01/13 09:01:22;;;;;;;62.43;28.40;;;-2.50;21.20;;;;;;5022272;28;20476;-70
2024/01/13 09:03:48;;;;;;;60.43;27.10;;;-2.40;21.50;;;;;;5017378;28;20474;-70
2024/01/13 09:06:15;;;;;;;54.90;25.60;;;-2.40;21.20;;;;;;5003398;28;20459;-70
2024/01/13 09:08:42;;;;;;;51.93;22.73;;;-2.30;21.40;;;;;;5002455;28;20994;-70
2024/01/13 09:11:09;;;;;;;53.30;22.20;;;-2.30;21.40;;;;;;5005567;28;20496;-70
2024/01/13 09:13:36;;;;;;;53.80;25.10;;;-2.30;21.30;;;;;;5007367;28;20460;-70
2024/01/13 09:16:05;;;;;;;46.33;22.83;;;-2.20;20.80;;;;;;5005620;28;20523;-70
2024/01/13 09:18:32;;;;;;;43.87;23.07;;;-2.20;20.70;;;;;;5004305;28;20466;-70
2024/01/13 09:20:59;;;;;;;44.53;22.37;;;-2.20;20.80;;;;;;4999509;28;20468;-70
2024/01/13 09:23:25;;;;;;;46.30;20.63;;;-2.20;20.90;;;;;;4998914;28;20463;-69
2024/01/13 09:25:52;;;;;;;40.07;19.23;;;-2.10;21.00;;;;;;4998745;28;20459;-69
2024/01/13 09:28:19;;;;;;;41.33;18.07;;;-2.10;21.00;;;;;;5004474;28;20849;-69
2024/01/13 09:30:46;;;;;;;33.30;15.90;;;-2.10;20.90;;;;;;5005119;28;20471;-70
2024/01/13 09:33:15;;;;;;;40.70;19.87;;;-2.00;20.90;;;;;;5013114;28;20501;-69
2024/01/13 09:35:42;;;;;;;33.73;17.40;;;-2.00;20.90;;;;;;5010528;28;20526;-71
2024/01/13 09:38:08;;;;;;;36.77;17.43;;;-2.00;20.60;;;;;;5007143;28;20602;-71
2024/01/13 09:40:39;;;;;;;44.47;21.63;;;-1.90;20.00;;;;;;5001074;28;20468;-70
2024/01/13 09:43:16;;;;;;;43.70;20.37;;;-1.90;20.20;;;;;;5004283;28;20475;-71
2024/01/13 09:45:45;;;;;;;37.80;18.73;;;-1.90;20.10;;;;;;5000202;28;20478;-70
2024/01/13 09:48:17;;;;;;;38.97;17.47;;;-1.80;20.20;;;;;;5003165;28;20509;-72
2024/01/13 09:50:48;;;;;;;37.40;18.73;;;-1.80;20.30;;;;;;5001916;28;20526;-71
2024/01/13 09:53:27;;;;;;;36.10;18.77;;;-1.80;20.30;;;;;;5003211;28;20463;-71
2024/01/13 09:55:56;;;;;;;37.00;17.13;;;-1.70;20.20;;;;;;4996703;28;20487;-71
2024/01/13 09:58:24;;;;;;;32.40;15.60;;;-1.70;20.00;;;;;;5002187;28;20496;-70
2024/01/13 10:00:53;;;;;;;39.03;18.63;;;-1.70;20.00;;;;;;5007738;28;20838;-69
2024/01/13 10:03:22;;;;;;;42.20;19.30;;;-1.60;20.00;;;;;;5019728;28;20459;-70
2024/01/13 10:05:51;;;;;;;37.07;16.90;;;-1.60;19.90;;;;;;5026108;28;20455;-69
2024/01/13 10:08:27;;;;;;;38.20;18.33;;;-1.60;19.80;;;;;;5021286;28;20483;-73
2024/01/13 10:10:54;;;;;;;38.87;18.00;;;-1.60;19.70;;;;;;5016276;28;20477;-70
2024/01/13 10:13:21;;;;;;;44.50;19.80;;;-1.60;19.60;;;;;;5018857;28;20470;-69
2024/01/13 10:15:48;;;;;;;36.17;16.40;;;-1.60;19.70;;;;;;5019741;28;20482;-69
2024/01/13 10:18:15;;;;;;;38.67;18.13;;;-1.60;19.60;;;;;;5019481;28;20490;-69
2024/01/13 10:20:43;;;;;;;39.07;17.47;;;-1.60;19.60;;;;;;5021505;28;20557;-69
2024/01/13 10:23:10;;;;;;;44.90;23.50;;;-1.60;19.50;;;;;;5020672;28;20485;-71
2024/01/13 10:25:37;;;;;;;55.63;25.80;;;-1.50;19.60;;;;;;5023829;28;20546;-71
2024/01/13 10:28:04;;;;;;;32.50;17.27;;;-1.50;19.30;;;;;;5020974;28;20490;-72
2024/01/13 10:30:31;;;;;;;44.33;21.70;;;-1.50;19.30;;;;;;5023177;28;20471;-68
2024/01/13 10:32:59;;;;;;;37.13;17.90;;;-1.40;19.20;;;;;;5027424;28;20451;-68
2024/01/13 10:35:27;;;;;;;32.27;16.13;;;-1.40;19.30;;;;;;5023010;28;20571;-69
2024/01/13 10:37:56;;;;;;;37.27;16.40;;;-1.40;19.00;;;;;;5028319;28;20483;-69
2024/01/13 10:40:23;;;;;;;37.87;18.40;;;-1.40;19.10;;;;;;5024491;28;20471;-68
2024/01/13 10:42:54;;;;;;;38.80;18.00;;;-1.40;19.20;;;;;;5025928;28;20470;-70
2024/01/13 10:45:23;;;;;;;37.47;17.53;;;-1.40;19.20;;;;;;5020654;28;20961;-74
2024/01/13 10:47:52;;;;;;;42.80;21.20;;;-1.40;19.20;;;;;;5027749;28;20483;-68
2024/01/13 10:50:19;;;;;;;50.17;21.03;;;-1.40;19.20;;;;;;5027442;28;20537;-67
2024/01/13 10:53:05;;;;;;;62.30;27.43;;;-1.40;19.10;;;;;;5027704;28;20459;-71
2024/01/13 10:55:32;;;;;;;49.47;23.43;;;-1.40;19.10;;;;;;5022420;28;20475;-71
2024/01/13 10:58:00;;;;;;;44.57;20.40;;;-1.40;19.10;;;;;;5023350;28;20995;-71
2024/01/13 11:00:29;;;;;;;46.17;20.20;;;-1.40;19.20;;;;;;5025916;28;20758;-70
2024/01/13 11:02:56;;;;;;;57.63;24.37;;;-1.40;19.10;;;;;;5034760;28;20990;-71
2024/01/13 11:05:24;;;;;;;59.43;25.63;;;-1.40;18.90;;;;;;5029106;28;20555;-70
2024/01/13 11:07:51;;;;;;;59.07;25.60;;;-1.40;19.00;;;;;;5026246;28;20478;-69
2024/01/13 11:10:26;;;;;;;44.47;21.67;;;-1.40;19.10;;;;;;5013541;28;20481;-71
2024/01/13 11:13:00;;;;;;;43.50;19.30;;;-1.40;19.10;;;;;;5029267;28;20461;-69
2024/01/13 11:15:32;;;;;;;39.17;21.47;;;-1.30;19.20;;;;;;5017969;28;20496;-70
2024/01/13 11:18:01;;;;;;;42.70;19.90;;;-1.30;19.30;;;;;;5032429;28;20482;-70
2024/01/13 11:20:28;;;;;;;41.73;20.70;;;-1.30;19.20;;;;;;5025773;28;20474;-69
2024/01/13 11:22:59;;;;;;;46.10;21.50;;;-1.30;19.10;;;;;;5024822;28;21192;-69
2024/01/13 11:25:28;;;;;;;49.77;19.93;;;-1.20;19.00;;;;;;5034171;28;20462;-69
2024/01/13 11:27:59;;;;;;;43.93;19.67;;;-1.20;19.10;;;;;;5031671;28;20493;-72
2024/01/13 11:30:36;;;;;;;43.40;21.30;;;-1.20;19.10;;;;;;5027091;28;20478;-69
2024/01/13 11:33:06;;;;;;;42.30;20.97;;;-1.20;19.30;;;;;;5025433;28;20558;-69
2024/01/13 11:35:33;;;;;;;45.93;21.83;;;-1.10;19.30;;;;;;5022919;28;20486;-70
2024/01/13 11:38:02;;;;;;;43.10;19.80;;;-1.10;19.40;;;;;;5022458;28;20478;-69
2024/01/13 11:40:32;;;;;;;38.87;17.93;;;-1.00;19.40;;;;;;5024190;28;20566;-71
2024/01/13 11:43:01;;;;;;;33.57;17.00;;;-1.00;19.30;;;;;;5017742;28;20459;-70
2024/01/13 11:45:35;;;;;;;39.90;16.90;;;-0.90;19.30;;;;;;5020479;28;20459;-71
2024/01/13 11:48:36;;;;;;;40.40;18.97;;;-0.90;19.30;;;;;;5024872;28;20843;-71
2024/01/13 11:51:08;;;;;;;35.00;15.93;;;-0.90;19.30;;;;;;5017156;28;20463;-71
2024/01/13 11:53:36;;;;;;;40.93;17.40;;;-0.80;19.10;;;;;;5019572;28;20467;-69
2024/01/13 11:56:05;;;;;;;41.60;19.30;;;-0.80;19.30;;;;;;5017372;28;20483;-75
2024/01/13 11:58:34;;;;;;;41.23;19.77;;;-0.80;19.40;;;;;;5027475;28;20482;-75
2024/01/13 12:01:01;;;;;;;39.27;15.97;;;-0.80;19.40;;;;;;5026458;28;20473;-70
2024/01/13 12:03:29;;;;;;;43.30;20.20;;;-0.80;19.40;;;;;;5030520;28;20469;-71
2024/01/13 12:05:56;;;;;;;39.23;17.40;;;-0.70;19.40;;;;;;5027317;28;20459;-71
2024/01/13 12:08:25;;;;;;;38.90;16.23;;;-0.70;19.30;;;;;;5026711;28;20566;-70
2024/01/13 12:10:53;;;;;;;35.13;16.20;;;-0.70;19.20;;;;;;5028873;28;20467;-70
2024/01/13 12:13:22;;;;;;;36.90;16.27;;;-0.60;19.20;;;;;;5025548;28;20969;-70
2024/01/13 12:15:50;;;;;;;34.53;16.43;;;-0.60;19.30;;;;;;5018207;28;20478;-70
2024/01/13 12:18:22;;;;;;;39.97;16.90;;;-0.60;19.20;;;;;;5033377;28;20486;-70
2024/01/13 12:20:50;;;;;;;42.47;19.00;;;-0.50;19.10;;;;;;5023803;28;20471;-69
2024/01/13 12:23:18;;;;;;;39.60;19.07;;;-0.50;19.20;;;;;;5036726;28;20472;-70
2024/01/13 12:25:45;;;;;;;32.80;15.60;;;-0.50;19.10;;;;;;5033211;28;20454;-69
2024/01/13 12:28:12;;;;;;;44.83;16.83;;;-0.40;19.00;;;;;;5034164;28;20489;-70
2024/01/13 12:30:40;;;;;;;45.87;19.57;;;-0.40;19.20;;;;;;5028543;28;21043;-69